Time;durP1;ratioP1;P1;durP2;ratioP2;P2;SDS_P1;SDS_P2;PMS_P1;PMS_P2;Temp;Humidity;BMP_temperature;BMP_pressure;BME280_temperature;BME280_humidity;BME280_pressure;Samples;Min_cycle;Max_cycle;Signal;HPM_P1;HPM_P2
2023/04/09 00:00:11;;;;;;;10.00;5.43;;;17.20;78.00;;;;;;4909759;29;45359;-72
2023/04/09 00:02:39;;;;;;;8.07;5.55;;;17.20;77.80;;;;;;4910002;29;45295;-72
2023/04/09 00:05:07;;;;;;;9.25;5.55;;;17.20;77.60;;;;;;4909998;29;45750;-73
2023/04/09 00:07:34;;;;;;;8.20;5.63;;;17.20;77.80;;;;;;4909818;29;45254;-73
2023/04/09 00:10:00;;;;;;;7.18;5.03;;;17.20;78.40;;;;;;4909601;29;45224;-72
2023/04/09 00:12:29;;;;;;;9.05;5.85;;;17.20;78.20;;;;;;4909545;29;45266;-73
2023/04/09 00:14:56;;;;;;;8.13;5.53;;;17.20;78.30;;;;;;4910028;29;45247;-73
2023/04/09 00:17:22;;;;;;;7.88;5.38;;;17.20;78.40;;;;;;4909489;29;47527;-72
2023/04/09 00:19:50;;;;;;;9.95;6.30;;;17.20;78.50;;;;;;4909598;29;45147;-73
2023/04/09 00:22:17;;;;;;;8.82;5.57;;;17.20;78.50;;;;;;4909736;29;45235;-73
2023/04/09 00:24:44;;;;;;;8.23;5.68;;;17.20;78.60;;;;;;4909089;29;45404;-73
2023/04/09 00:27:11;;;;;;;9.40;5.70;;;17.30;78.50;;;;;;4908936;28;45462;-73
2023/04/09 00:29:37;;;;;;;10.75;6.07;;;17.30;78.50;;;;;;4909360;28;45150;-73
2023/04/09 00:32:05;;;;;;;8.55;5.95;;;17.20;78.40;;;;;;4909341;28;45102;-73
2023/04/09 00:34:31;;;;;;;9.02;5.75;;;17.30;78.30;;;;;;4909624;28;45298;-73
2023/04/09 00:37:00;;;;;;;8.57;6.20;;;17.30;78.40;;;;;;4909709;28;46970;-73
2023/04/09 00:39:26;;;;;;;9.20;5.68;;;17.20;77.50;;;;;;4908921;28;45526;-73
2023/04/09 00:41:57;;;;;;;8.73;5.85;;;17.20;77.70;;;;;;4909505;28;45217;-73
2023/04/09 00:44:24;;;;;;;9.30;5.75;;;17.20;77.30;;;;;;4909602;28;45200;-73
2023/04/09 00:46:51;;;;;;;8.13;5.57;;;17.20;77.90;;;;;;4909188;28;45472;-73
2023/04/09 00:49:18;;;;;;;10.05;6.35;;;17.20;77.00;;;;;;4909343;28;45234;-73
2023/04/09 00:51:46;;;;;;;8.52;6.03;;;17.20;77.40;;;;;;4909519;28;45278;-73
2023/04/09 00:54:14;;;;;;;9.38;6.45;;;17.20;76.90;;;;;;4909132;28;45389;-73
2023/04/09 00:56:42;;;;;;;8.32;5.78;;;17.20;77.10;;;;;;4908857;28;46283;-73
2023/04/09 00:59:09;;;;;;;11.20;6.50;;;17.20;76.60;;;;;;4909417;28;45204;-73
2023/04/09 01:01:36;;;;;;;12.32;6.07;;;17.20;76.70;;;;;;4909128;28;45151;-73
2023/04/09 01:04:03;;;;;;;8.68;5.95;;;17.20;76.40;;;;;;4909381;28;45183;-73
2023/04/09 01:06:36;;;;;;;9.10;6.43;;;17.20;77.30;;;;;;4909116;28;45327;-73
2023/04/09 01:09:09;;;;;;;10.43;6.53;;;17.20;77.30;;;;;;4906425;28;45265;-73
2023/04/09 01:11:40;;;;;;;9.82;6.22;;;17.20;77.60;;;;;;4909271;28;45298;-73
2023/04/09 01:14:14;;;;;;;10.13;6.35;;;17.20;77.30;;;;;;4909308;28;45536;-74
2023/04/09 01:16:44;;;;;;;8.68;6.07;;;17.20;77.40;;;;;;4908706;29;45361;-74
2023/04/09 01:19:35;;;;;;;9.35;6.35;;;17.20;77.50;;;;;;4909156;28;45352;-74
2023/04/09 01:22:05;;;;;;;9.95;6.20;;;17.20;77.30;;;;;;4909235;28;45151;-74
2023/04/09 01:24:44;;;;;;;9.70;5.88;;;17.20;77.50;;;;;;4908917;28;45369;-73
2023/04/09 01:27:15;;;;;;;7.47;5.43;;;17.30;77.20;;;;;;4909087;28;47224;-73
2023/04/09 01:29:52;;;;;;;8.95;6.13;;;17.20;77.00;;;;;;4908936;28;45338;-73
2023/04/09 01:32:21;;;;;;;10.40;6.35;;;17.20;77.10;;;;;;4908892;28;45181;-73
2023/04/09 01:34:49;;;;;;;8.65;6.20;;;17.20;76.60;;;;;;4909109;28;45131;-73
2023/04/09 01:37:16;;;;;;;9.40;6.35;;;17.20;76.60;;;;;;4910332;28;45341;-73
2023/04/09 01:39:44;;;;;;;8.18;5.80;;;17.20;75.90;;;;;;4911733;28;45391;-73
2023/04/09 01:42:12;;;;;;;9.80;6.28;;;17.20;75.80;;;;;;4912167;28;45201;-74
2023/04/09 01:44:40;;;;;;;9.95;6.60;;;17.20;75.80;;;;;;4912030;28;45472;-73
2023/04/09 01:47:10;;;;;;;10.48;6.10;;;17.20;75.80;;;;;;4912379;28;47435;-73
2023/04/09 01:49:38;;;;;;;9.27;6.55;;;17.20;75.80;;;;;;4912121;28;45904;-73
2023/04/09 01:52:05;;;;;;;9.50;5.65;;;17.20;75.80;;;;;;4912098;28;45253;-74
2023/04/09 01:54:32;;;;;;;7.93;5.93;;;17.20;75.80;;;;;;4911922;28;45555;-74
2023/04/09 01:56:59;;;;;;;9.90;5.90;;;17.20;75.80;;;;;;4911661;28;46949;-74
2023/04/09 01:59:26;;;;;;;10.40;6.20;;;17.20;75.80;;;;;;4912306;28;45287;-74
2023/04/09 02:01:58;;;;;;;9.00;6.30;;;17.20;75.80;;;;;;4912153;28;45175;-73
2023/04/09 02:04:32;;;;;;;8.82;5.60;;;17.20;75.80;;;;;;4911867;28;45187;-73
2023/04/09 02:07:04;;;;;;;8.63;5.63;;;17.20;75.90;;;;;;4911508;28;48287;-74
2023/04/09 02:09:33;;;;;;;8.30;5.70;;;17.20;76.10;;;;;;4911769;28;45115;-74
2023/04/09 02:12:04;;;;;;;8.75;5.78;;;17.20;76.30;;;;;;4911785;28;45242;-74
2023/04/09 02:14:32;;;;;;;9.48;5.72;;;17.20;76.40;;;;;;4908991;28;45256;-74
2023/04/09 02:16:59;;;;;;;8.60;5.93;;;17.20;76.20;;;;;;4911316;28;45319;-74
2023/04/09 02:19:38;;;;;;;8.40;5.35;;;17.30;76.40;;;;;;4911387;28;45213;-74
2023/04/09 02:22:05;;;;;;;13.05;6.05;;;17.30;76.30;;;;;;4912078;28;45062;-74
2023/04/09 02:24:32;;;;;;;9.30;5.95;;;17.30;76.30;;;;;;4911600;28;45704;-74
2023/04/09 02:26:59;;;;;;;8.73;5.70;;;17.20;75.80;;;;;;4911283;28;46682;-73
2023/04/09 02:29:26;;;;;;;10.63;6.90;;;17.20;75.80;;;;;;4910068;28;45736;-74
2023/04/09 02:31:52;;;;;;;9.13;6.15;;;17.20;75.90;;;;;;4910807;28;45302;-75
2023/04/09 02:34:20;;;;;;;9.25;6.53;;;17.20;75.80;;;;;;4910475;28;45171;-75
2023/04/09 02:36:48;;;;;;;9.38;6.10;;;17.20;75.80;;;;;;4910905;28;48626;-75
2023/04/09 02:39:15;;;;;;;8.53;6.30;;;17.20;75.20;;;;;;4909865;28;45238;-76
2023/04/09 02:41:42;;;;;;;8.45;6.32;;;17.20;75.50;;;;;;4910620;28;45268;-75
2023/04/09 02:44:09;;;;;;;8.93;6.53;;;17.20;75.50;;;;;;4910514;28;45440;-76
2023/04/09 02:46:36;;;;;;;8.80;6.23;;;17.20;75.70;;;;;;4910756;28;48587;-75
2023/04/09 02:49:03;;;;;;;8.60;6.37;;;17.20;75.40;;;;;;4909365;28;46040;-75
2023/04/09 02:51:30;;;;;;;8.60;6.13;;;17.20;75.20;;;;;;4910467;28;45345;-75
2023/04/09 02:53:58;;;;;;;7.68;5.50;;;17.20;75.10;;;;;;4911017;28;45143;-74
2023/04/09 02:56:25;;;;;;;9.00;6.57;;;17.20;75.40;;;;;;4911426;28;46488;-73
2023/04/09 02:58:52;;;;;;;10.02;6.75;;;17.20;75.80;;;;;;4910820;28;45271;-74
2023/04/09 03:01:19;;;;;;;9.00;5.95;;;17.20;75.80;;;;;;4911075;28;45246;-74
2023/04/09 03:03:46;;;;;;;9.30;6.03;;;17.20;75.80;;;;;;4911464;28;45372;-74
2023/04/09 03:06:13;;;;;;;10.73;6.03;;;17.20;75.80;;;;;;4910848;28;46892;-74
2023/04/09 03:08:40;;;;;;;9.25;5.70;;;17.20;75.80;;;;;;4911002;28;45137;-74
2023/04/09 03:11:08;;;;;;;9.82;6.45;;;17.20;75.80;;;;;;4911022;28;45192;-74
2023/04/09 03:13:35;;;;;;;9.32;6.07;;;17.20;75.80;;;;;;4910763;28;45610;-74
2023/04/09 03:16:02;;;;;;;9.48;5.70;;;17.20;75.80;;;;;;4910633;28;45480;-74
2023/04/09 03:18:29;;;;;;;8.50;5.93;;;17.20;75.80;;;;;;4910887;28;45130;-74
2023/04/09 03:20:55;;;;;;;9.90;5.90;;;17.20;75.80;;;;;;4910535;28;45095;-74
2023/04/09 03:23:22;;;;;;;8.38;5.82;;;17.20;75.80;;;;;;4910690;28;45613;-74
2023/04/09 03:25:49;;;;;;;8.35;5.85;;;17.10;74.70;;;;;;4910543;28;48247;-74
2023/04/09 03:28:17;;;;;;;7.68;5.82;;;17.10;74.70;;;;;;4910464;28;45210;-74
2023/04/09 03:30:44;;;;;;;8.35;5.85;;;17.10;74.30;;;;;;4910789;28;45272;-75
2023/04/09 03:33:10;;;;;;;9.35;6.20;;;17.10;74.00;;;;;;4910571;28;45233;-74
2023/04/09 03:35:37;;;;;;;8.15;5.75;;;17.10;73.00;;;;;;4910471;28;47936;-75
2023/04/09 03:38:04;;;;;;;9.60;6.40;;;17.00;72.70;;;;;;4910309;28;45321;-75
2023/04/09 03:40:32;;;;;;;10.40;6.45;;;17.00;72.10;;;;;;4910669;28;45275;-75
2023/04/09 03:42:59;;;;;;;12.25;7.38;;;17.00;72.00;;;;;;4910259;28;45602;-74
2023/04/09 03:45:27;;;;;;;10.02;6.65;;;17.00;72.10;;;;;;4910066;28;45276;-75
2023/04/09 03:47:53;;;;;;;9.85;6.28;;;17.00;72.20;;;;;;4910202;28;45219;-73
2023/04/09 03:50:20;;;;;;;9.30;6.40;;;16.90;72.40;;;;;;4910808;28;45396;-73
2023/04/09 03:52:47;;;;;;;9.57;6.55;;;16.90;72.50;;;;;;4910198;28;45467;-74
2023/04/09 03:55:14;;;;;;;9.75;6.38;;;17.00;72.40;;;;;;4909931;28;46341;-74
2023/04/09 03:57:41;;;;;;;9.70;6.28;;;17.00;73.10;;;;;;4910095;28;45139;-74
2023/04/09 04:00:09;;;;;;;11.38;6.85;;;17.00;73.00;;;;;;4909880;28;45314;-75
2023/04/09 04:02:37;;;;;;;8.18;5.70;;;17.00;73.00;;;;;;4910231;28;45324;-75
2023/04/09 04:05:05;;;;;;;9.25;6.28;;;17.00;73.00;;;;;;4909706;28;46378;-75
2023/04/09 04:07:33;;;;;;;9.52;6.30;;;17.10;73.30;;;;;;4909826;28;45140;-75
2023/04/09 04:10:00;;;;;;;12.70;6.22;;;17.00;73.20;;;;;;4910136;28;45158;-75
2023/04/09 04:12:27;;;;;;;9.18;6.10;;;17.10;73.30;;;;;;4910189;29;45201;-75
2023/04/09 04:14:54;;;;;;;8.15;5.63;;;17.10;73.30;;;;;;4909801;28;47044;-75
2023/04/09 04:17:21;;;;;;;9.25;6.53;;;17.10;73.30;;;;;;4909833;28;45107;-75
2023/04/09 04:19:49;;;;;;;11.43;6.15;;;17.10;73.30;;;;;;4909695;28;45281;-75
2023/04/09 04:22:17;;;;;;;9.70;6.20;;;17.10;73.20;;;;;;4909694;28;45212;-75
2023/04/09 04:24:45;;;;;;;10.82;5.85;;;17.10;72.80;;;;;;4909274;28;45408;-75
2023/04/09 04:27:14;;;;;;;10.20;6.35;;;17.10;72.80;;;;;;4909413;28;45199;-76
2023/04/09 04:29:44;;;;;;;9.32;6.30;;;17.00;72.80;;;;;;4909408;28;45387;-76
2023/04/09 04:32:13;;;;;;;9.48;5.88;;;17.00;72.50;;;;;;4909518;28;45237;-75
2023/04/09 04:34:42;;;;;;;9.35;5.88;;;17.00;72.10;;;;;;4909032;28;45308;-75
2023/04/09 04:37:14;;;;;;;8.98;6.13;;;17.00;72.00;;;;;;4909226;28;45324;-76
2023/04/09 04:39:41;;;;;;;10.20;6.22;;;17.00;71.50;;;;;;4909313;28;45198;-76
2023/04/09 04:42:08;;;;;;;10.50;6.53;;;17.00;71.30;;;;;;4910272;28;45131;-75
2023/04/09 04:44:36;;;;;;;10.32;6.60;;;17.00;71.10;;;;;;4909766;28;45817;-75
2023/04/09 04:47:05;;;;;;;10.63;6.47;;;17.00;70.70;;;;;;4909659;28;45246;-76
2023/04/09 04:49:32;;;;;;;10.70;6.85;;;17.00;70.60;;;;;;4909151;28;45364;-76
2023/04/09 04:52:01;;;;;;;11.10;7.00;;;17.00;71.20;;;;;;4909527;28;45152;-75
2023/04/09 04:54:32;;;;;;;9.32;6.20;;;17.00;71.00;;;;;;4908778;28;45473;-76
2023/04/09 04:57:03;;;;;;;9.73;6.32;;;17.00;71.00;;;;;;4909017;28;45164;-75
2023/04/09 04:59:30;;;;;;;11.55;6.72;;;17.00;70.70;;;;;;4909117;28;45238;-75
2023/04/09 05:01:57;;;;;;;11.30;5.88;;;16.90;70.50;;;;;;4909458;29;45225;-75
2023/04/09 05:04:24;;;;;;;10.77;6.57;;;17.00;70.30;;;;;;4909443;28;45461;-75
2023/04/09 05:06:54;;;;;;;10.52;6.53;;;16.90;70.00;;;;;;4909149;28;45159;-76
2023/04/09 05:09:21;;;;;;;10.05;6.78;;;16.90;69.90;;;;;;4908905;28;45177;-76
2023/04/09 05:11:53;;;;;;;9.30;5.82;;;16.90;69.60;;;;;;4911744;28;45160;-76
2023/04/09 05:14:24;;;;;;;11.90;6.75;;;17.00;69.80;;;;;;4914995;28;45429;-76
2023/04/09 05:16:53;;;;;;;10.18;6.75;;;17.00;69.00;;;;;;4915444;28;45381;-76
2023/04/09 05:19:21;;;;;;;9.52;6.32;;;17.00;69.00;;;;;;4915539;28;45366;-76
2023/04/09 05:21:50;;;;;;;11.20;6.72;;;17.00;68.70;;;;;;4915370;28;45502;-77
2023/04/09 05:24:18;;;;;;;9.57;6.45;;;16.90;68.10;;;;;;4914843;28;46710;-77
2023/04/09 05:26:47;;;;;;;8.82;6.30;;;16.90;68.20;;;;;;4915251;28;45320;-76
2023/04/09 05:29:21;;;;;;;9.60;5.97;;;16.90;68.00;;;;;;4914995;28;45211;-78
2023/04/09 05:31:49;;;;;;;9.75;6.88;;;16.90;67.90;;;;;;4915391;28;45386;-76
2023/04/09 05:34:18;;;;;;;10.93;6.93;;;16.90;67.60;;;;;;4915862;28;45688;-77
2023/04/09 05:36:47;;;;;;;9.05;6.47;;;16.90;67.40;;;;;;4914848;28;45335;-77
2023/04/09 05:39:15;;;;;;;9.82;6.57;;;16.90;67.50;;;;;;4914955;28;45427;-77
2023/04/09 05:41:43;;;;;;;11.07;7.00;;;16.90;67.30;;;;;;4915221;28;45106;-77
2023/04/09 05:44:10;;;;;;;10.80;7.10;;;16.90;68.00;;;;;;4914869;28;45601;-76
2023/04/09 05:46:42;;;;;;;12.20;6.97;;;16.90;68.30;;;;;;4915095;28;45207;-77
2023/04/09 05:49:10;;;;;;;10.68;6.53;;;16.90;68.30;;;;;;4915568;28;45227;-76
2023/04/09 05:51:39;;;;;;;11.05;6.40;;;16.90;68.40;;;;;;4915514;28;45272;-76
2023/04/09 05:54:07;;;;;;;10.63;6.93;;;17.00;68.70;;;;;;4914726;28;45599;-78
2023/04/09 05:56:37;;;;;;;9.23;6.15;;;17.00;68.80;;;;;;4914895;28;45383;-78
2023/04/09 05:59:05;;;;;;;10.40;6.90;;;17.00;68.90;;;;;;4914704;28;45209;-78
2023/04/09 06:01:32;;;;;;;10.85;6.50;;;17.10;69.10;;;;;;4914815;28;45272;-78
2023/04/09 06:04:03;;;;;;;10.43;6.78;;;16.90;68.80;;;;;;4915025;28;45797;-79
2023/04/09 06:06:31;;;;;;;10.00;6.28;;;17.00;68.70;;;;;;4914949;28;45677;-78
2023/04/09 06:09:00;;;;;;;10.75;6.68;;;16.90;69.30;;;;;;4915029;28;45151;-78
2023/04/09 06:11:30;;;;;;;9.38;6.43;;;16.90;68.00;;;;;;4914653;28;45550;-78
2023/04/09 06:13:57;;;;;;;10.07;6.63;;;16.90;67.60;;;;;;4914563;28;45705;-78
2023/04/09 06:16:25;;;;;;;8.40;6.10;;;16.90;67.50;;;;;;4914355;28;45246;-78
2023/04/09 06:18:55;;;;;;;9.20;6.50;;;16.90;67.80;;;;;;4914609;28;45199;-79
2023/04/09 06:21:26;;;;;;;10.38;6.75;;;16.90;66.80;;;;;;4915242;28;45290;-78
2023/04/09 06:23:57;;;;;;;10.00;6.68;;;16.90;67.30;;;;;;4911016;28;46466;-78
2023/04/09 06:26:26;;;;;;;9.63;6.70;;;16.90;67.10;;;;;;4912187;28;45253;-78
2023/04/09 06:28:55;;;;;;;8.35;6.03;;;16.90;66.60;;;;;;4911750;28;45387;-78
2023/04/09 06:31:24;;;;;;;8.82;5.97;;;16.90;66.60;;;;;;4911908;28;45141;-79
2023/04/09 06:33:54;;;;;;;9.85;6.40;;;16.90;66.70;;;;;;4911194;28;46569;-79
2023/04/09 06:36:21;;;;;;;9.50;5.75;;;16.90;66.20;;;;;;4911297;28;45075;-79
2023/04/09 06:38:55;;;;;;;9.20;6.00;;;16.90;66.40;;;;;;4911284;28;45365;-78
2023/04/09 06:41:22;;;;;;;8.48;5.57;;;16.90;66.60;;;;;;4911506;28;45109;-79
2023/04/09 06:43:52;;;;;;;9.50;6.47;;;16.90;66.60;;;;;;4910780;28;45462;-80
2023/04/09 06:46:20;;;;;;;8.02;5.90;;;16.90;67.20;;;;;;4911125;28;45389;-79
2023/04/09 06:48:47;;;;;;;9.50;6.00;;;17.00;67.00;;;;;;4911344;28;45145;-79
2023/04/09 06:51:16;;;;;;;8.38;5.85;;;17.00;67.60;;;;;;4910984;28;45126;-78
2023/04/09 06:53:46;;;;;;;9.95;6.45;;;17.00;67.60;;;;;;4910868;28;45710;-79
2023/04/09 06:56:18;;;;;;;8.07;5.43;;;17.00;67.50;;;;;;4910859;28;45278;-78
2023/04/09 06:58:47;;;;;;;8.48;5.72;;;17.00;67.80;;;;;;4910901;28;45143;-77
2023/04/09 07:01:16;;;;;;;7.63;5.38;;;17.00;68.00;;;;;;4910957;28;45529;-78
2023/04/09 07:03:45;;;;;;;8.63;5.30;;;17.00;67.70;;;;;;4910549;28;46251;-77
2023/04/09 07:06:15;;;;;;;8.15;5.15;;;17.00;67.40;;;;;;4910635;28;45089;-78
2023/04/09 07:08:45;;;;;;;8.30;5.28;;;17.00;68.50;;;;;;4910594;28;45259;-78
2023/04/09 07:11:15;;;;;;;8.77;5.47;;;17.10;67.60;;;;;;4910740;28;45629;-79
2023/04/09 07:13:46;;;;;;;8.35;5.72;;;17.00;67.60;;;;;;4910292;28;45559;-77
2023/04/09 07:16:15;;;;;;;6.65;5.10;;;17.10;67.80;;;;;;4910811;28;45281;-77
2023/04/09 07:18:43;;;;;;;8.05;5.15;;;17.10;67.70;;;;;;4910601;28;45503;-77
2023/04/09 07:21:10;;;;;;;5.95;4.70;;;17.10;67.50;;;;;;4911949;28;45324;-77
2023/04/09 07:23:40;;;;;;;8.95;5.50;;;17.10;67.60;;;;;;4910892;28;45465;-77
2023/04/09 07:26:07;;;;;;;7.22;4.75;;;17.10;67.70;;;;;;4910610;28;45286;-78
2023/04/09 07:28:37;;;;;;;7.75;4.85;;;17.00;68.00;;;;;;4910661;28;45397;-77
2023/04/09 07:31:09;;;;;;;6.47;4.47;;;17.00;68.00;;;;;;4910470;28;45225;-77
2023/04/09 07:33:38;;;;;;;8.05;4.82;;;17.00;68.30;;;;;;4910502;28;45487;-77
2023/04/09 07:36:07;;;;;;;8.35;5.13;;;17.00;68.70;;;;;;4910021;28;45390;-78
2023/04/09 07:38:34;;;;;;;6.75;4.80;;;17.00;68.60;;;;;;4910007;28;45377;-77
2023/04/09 07:41:02;;;;;;;7.30;4.68;;;17.10;69.00;;;;;;4910918;28;45113;-77
2023/04/09 07:43:29;;;;;;;7.85;4.57;;;17.10;68.80;;;;;;4909936;28;46748;-77
2023/04/09 07:45:57;;;;;;;6.57;4.40;;;17.10;69.00;;;;;;4910272;28;45412;-77
2023/04/09 07:48:28;;;;;;;6.25;4.25;;;17.10;68.90;;;;;;4910342;28;45174;-77
2023/04/09 07:50:57;;;;;;;9.45;5.05;;;17.10;68.90;;;;;;4910261;28;45535;-77
2023/04/09 07:53:27;;;;;;;5.47;3.88;;;17.10;68.80;;;;;;4909827;28;46870;-77
2023/04/09 07:55:55;;;;;;;6.93;4.35;;;17.20;69.00;;;;;;4909772;28;45143;-77
2023/04/09 07:58:23;;;;;;;5.82;4.00;;;17.10;68.60;;;;;;4910399;28;45282;-77
2023/04/09 08:00:51;;;;;;;6.25;4.32;;;17.10;68.40;;;;;;4910632;28;45066;-77
2023/04/09 08:03:19;;;;;;;5.85;4.13;;;17.10;68.40;;;;;;4909693;28;45785;-77
2023/04/09 08:05:51;;;;;;;5.50;3.90;;;17.20;68.70;;;;;;4909844;29;46167;-77
2023/04/09 08:08:18;;;;;;;6.63;4.18;;;17.10;68.40;;;;;;4909094;28;45283;-71
2023/04/09 08:10:45;;;;;;;9.05;4.00;;;17.10;69.10;;;;;;4908802;28;45411;-74
2023/04/09 08:13:12;;;;;;;7.47;3.80;;;17.20;69.10;;;;;;4908241;29;48290;-74
2023/04/09 08:15:38;;;;;;;5.97;3.78;;;17.10;68.60;;;;;;4908735;29;45371;-72
2023/04/09 08:18:05;;;;;;;6.35;3.97;;;17.10;68.30;;;;;;4916686;28;45355;-73
2023/04/09 08:20:32;;;;;;;5.68;3.70;;;17.10;68.50;;;;;;4915323;28;45255;-74
2023/04/09 08:23:00;;;;;;;6.38;3.88;;;17.20;68.40;;;;;;4908793;28;46291;-73
2023/04/09 08:25:27;;;;;;;5.65;3.67;;;17.20;68.50;;;;;;4914694;28;45357;-74
2023/04/09 08:27:54;;;;;;;4.55;3.30;;;17.20;68.40;;;;;;4910051;28;45438;-74
2023/04/09 08:30:21;;;;;;;4.45;3.20;;;17.20;68.60;;;;;;4911760;28;45238;-73
2023/04/09 08:32:47;;;;;;;6.15;3.60;;;17.20;68.50;;;;;;4908026;28;47674;-73
2023/04/09 08:35:14;;;;;;;4.40;3.25;;;17.20;68.90;;;;;;4907562;28;45279;-74
2023/04/09 08:37:41;;;;;;;6.28;3.47;;;17.20;69.10;;;;;;4915305;28;45374;-73
2023/04/09 08:40:10;;;;;;;7.03;3.50;;;17.20;69.00;;;;;;4906533;28;45520;-73
2023/04/09 08:42:43;;;;;;;5.32;3.20;;;17.20;69.10;;;;;;4908266;28;46547;-73
2023/04/09 08:45:11;;;;;;;5.40;3.35;;;17.20;68.70;;;;;;4908787;29;45325;-74
2023/04/09 08:47:39;;;;;;;5.07;3.00;;;17.20;68.70;;;;;;4914517;28;45373;-73
2023/04/09 08:50:07;;;;;;;4.53;2.97;;;17.20;68.90;;;;;;4910690;28;45620;-73
2023/04/09 08:52:35;;;;;;;3.72;2.80;;;17.20;69.10;;;;;;4893712;29;47457;-74
2023/04/09 08:55:01;;;;;;;5.38;3.28;;;17.20;69.20;;;;;;4911570;28;45694;-73
2023/04/09 08:57:30;;;;;;;4.88;3.17;;;17.20;69.20;;;;;;4908573;29;45184;-73
2023/04/09 08:59:57;;;;;;;4.68;3.30;;;17.20;69.20;;;;;;4908896;29;45301;-74
2023/04/09 09:02:24;;;;;;;3.63;2.92;;;17.20;69.20;;;;;;4916190;28;47815;-74
2023/04/09 09:04:53;;;;;;;5.00;3.53;;;17.20;69.30;;;;;;4909386;28;45230;-74
2023/04/09 09:07:20;;;;;;;3.65;2.50;;;17.20;69.30;;;;;;4914390;28;45346;-73
2023/04/09 09:09:55;;;;;;;3.75;2.75;;;17.20;69.30;;;;;;4907759;29;45314;-73
2023/04/09 09:12:38;;;;;;;4.60;3.13;;;17.20;69.30;;;;;;4907809;29;47725;-73
2023/04/09 09:15:06;;;;;;;5.13;2.97;;;17.20;69.20;;;;;;4907365;29;45769;-73
2023/04/09 09:17:34;;;;;;;5.10;3.00;;;17.20;69.10;;;;;;4907822;28;45343;-73
2023/04/09 09:20:19;;;;;;;4.53;2.60;;;17.20;68.80;;;;;;4908871;28;45464;-73
2023/04/09 09:22:50;;;;;;;3.95;2.50;;;17.20;68.90;;;;;;4907080;29;48199;-73
2023/04/09 09:25:21;;;;;;;3.10;2.70;;;17.20;68.90;;;;;;4908565;28;45354;-73
2023/04/09 09:27:50;;;;;;;4.47;2.65;;;17.20;68.80;;;;;;4907287;29;45236;-73
2023/04/09 09:30:24;;;;;;;5.07;2.90;;;17.20;69.10;;;;;;4915290;28;45569;-73
2023/04/09 09:32:54;;;;;;;4.20;2.47;;;17.20;69.10;;;;;;4906394;29;46784;-73
2023/04/09 09:35:22;;;;;;;4.20;2.97;;;17.20;69.40;;;;;;4914436;28;45320;-74
2023/04/09 09:38:02;;;;;;;4.55;3.00;;;17.20;69.10;;;;;;4907580;28;45291;-73
2023/04/09 09:40:28;;;;;;;3.25;2.28;;;17.10;69.20;;;;;;4908602;29;45512;-74
2023/04/09 09:42:57;;;;;;;3.78;2.40;;;17.20;68.80;;;;;;4907901;29;46316;-74
2023/04/09 09:45:25;;;;;;;4.80;2.55;;;17.20;69.10;;;;;;4907525;29;45277;-74
2023/04/09 09:47:52;;;;;;;3.63;2.47;;;17.20;69.00;;;;;;4906619;28;45302;-73
2023/04/09 09:50:23;;;;;;;3.33;2.40;;;17.20;69.20;;;;;;4906180;28;45458;-73
2023/04/09 09:52:54;;;;;;;3.53;2.53;;;17.20;68.90;;;;;;4914101;28;45373;-73
2023/04/09 09:55:24;;;;;;;3.25;2.20;;;17.20;69.40;;;;;;4913747;28;45384;-74
2023/04/09 09:57:53;;;;;;;3.03;2.30;;;17.20;69.40;;;;;;4907794;28;45282;-73
2023/04/09 10:00:24;;;;;;;3.47;2.33;;;17.20;69.40;;;;;;4918387;28;45476;-73
2023/04/09 10:02:56;;;;;;;3.13;2.33;;;17.20;69.20;;;;;;4919229;28;46559;-73
2023/04/09 10:05:25;;;;;;;3.05;2.20;;;17.20;69.10;;;;;;4926694;28;45344;-73
2023/04/09 10:07:53;;;;;;;4.03;1.90;;;17.20;69.10;;;;;;4929767;28;45341;-73
2023/04/09 10:10:21;;;;;;;3.67;2.17;;;17.20;69.10;;;;;;4920232;28;45343;-73
2023/04/09 10:12:48;;;;;;;3.17;2.05;;;17.20;69.10;;;;;;4910845;28;46825;-73
2023/04/09 10:15:15;;;;;;;4.30;2.35;;;17.20;69.00;;;;;;4924847;28;45358;-73
2023/04/09 10:17:43;;;;;;;3.80;2.20;;;17.20;69.20;;;;;;4917564;28;45258;-73
2023/04/09 10:20:13;;;;;;;2.47;2.00;;;17.20;69.20;;;;;;4908968;28;45470;-73
2023/04/09 10:22:42;;;;;;;2.85;1.70;;;17.20;69.30;;;;;;4910261;29;46465;-73
2023/04/09 10:25:10;;;;;;;3.10;2.08;;;17.20;69.20;;;;;;4913820;28;45441;-74
2023/04/09 10:27:37;;;;;;;2.45;1.85;;;17.20;68.80;;;;;;4914265;28;45258;-73
2023/04/09 10:30:09;;;;;;;3.53;1.70;;;17.20;69.00;;;;;;4921005;28;45477;-74
2023/04/09 10:32:36;;;;;;;3.17;1.75;;;17.20;69.20;;;;;;4922067;28;46856;-74
2023/04/09 10:35:05;;;;;;;1.77;1.40;;;17.20;69.10;;;;;;4910144;28;45322;-74
2023/04/09 10:37:32;;;;;;;3.50;1.73;;;17.30;69.10;;;;;;4909939;29;45151;-73
2023/04/09 10:39:59;;;;;;;2.00;1.50;;;17.30;69.00;;;;;;4919762;28;45307;-75
2023/04/09 10:42:32;;;;;;;2.65;1.73;;;17.30;69.00;;;;;;4922816;28;45734;-73
2023/04/09 10:45:06;;;;;;;2.95;1.80;;;17.30;68.70;;;;;;4916789;28;45330;-73
2023/04/09 10:47:35;;;;;;;2.17;1.33;;;17.30;68.90;;;;;;4909584;28;45398;-73
2023/04/09 10:50:17;;;;;;;1.63;1.38;;;17.30;68.70;;;;;;4909148;28;45598;-73
2023/04/09 10:52:44;;;;;;;3.67;1.90;;;17.30;68.50;;;;;;4908957;28;46863;-72
2023/04/09 10:55:30;;;;;;;1.92;1.70;;;17.30;69.50;;;;;;4916645;28;45347;-73
2023/04/09 10:57:57;;;;;;;1.98;1.55;;;17.30;68.00;;;;;;4908603;28;45420;-73
2023/04/09 11:00:24;;;;;;;3.78;1.50;;;17.30;68.00;;;;;;4910182;28;45197;-73
2023/04/09 11:03:22;;;;;;;2.60;1.58;;;17.30;68.30;;;;;;4898308;28;46962;-73
2023/04/09 11:05:55;;;;;;;2.63;1.60;;;17.30;67.90;;;;;;4909195;28;45650;-73
2023/04/09 11:08:22;;;;;;;2.25;1.50;;;17.30;67.90;;;;;;4914587;28;45270;-73
2023/04/09 11:10:50;;;;;;;2.08;1.52;;;17.30;68.00;;;;;;4915494;28;45334;-73
2023/04/09 11:13:18;;;;;;;1.65;1.30;;;17.30;67.90;;;;;;4908275;28;47293;-73
2023/04/09 11:15:46;;;;;;;1.83;1.35;;;17.40;68.10;;;;;;4908408;28;45600;-72
2023/04/09 11:18:19;;;;;;;2.30;1.60;;;17.40;68.00;;;;;;4908246;29;45384;-73
2023/04/09 11:20:46;;;;;;;1.92;1.45;;;17.40;67.80;;;;;;4908861;28;45337;-73
2023/04/09 11:23:17;;;;;;;1.80;1.42;;;17.40;68.30;;;;;;4914715;28;47348;-73
2023/04/09 11:25:49;;;;;;;2.15;1.40;;;17.40;68.10;;;;;;4916176;28;45369;-73
2023/04/09 11:28:16;;;;;;;2.95;1.63;;;17.40;68.10;;;;;;4915066;28;45306;-72
2023/04/09 11:30:45;;;;;;;2.20;1.65;;;17.40;68.00;;;;;;4908416;29;45276;-73
2023/04/09 11:33:12;;;;;;;2.58;1.60;;;17.40;68.10;;;;;;4915245;28;48640;-73
2023/04/09 11:35:39;;;;;;;1.48;1.30;;;17.40;68.00;;;;;;4915623;28;45543;-73
2023/04/09 11:38:07;;;;;;;2.13;1.63;;;17.40;68.00;;;;;;4907792;28;45351;-73
2023/04/09 11:40:35;;;;;;;1.60;1.42;;;17.40;68.00;;;;;;4907870;29;45388;-73
2023/04/09 11:43:03;;;;;;;2.00;1.23;;;17.40;68.10;;;;;;4907352;28;46239;-73
2023/04/09 11:45:31;;;;;;;2.45;1.55;;;17.40;67.90;;;;;;4907569;28;45302;-73
2023/04/09 11:47:58;;;;;;;2.08;1.50;;;17.40;67.70;;;;;;4908148;28;45290;-74
2023/04/09 11:50:25;;;;;;;1.95;1.40;;;17.40;67.30;;;;;;4907741;28;45262;-73
2023/04/09 11:52:52;;;;;;;2.17;1.60;;;17.40;67.30;;;;;;4907348;28;45522;-73
2023/04/09 11:55:26;;;;;;;1.65;1.23;;;17.40;67.10;;;;;;4907108;28;45420;-73
2023/04/09 11:57:59;;;;;;;2.28;1.63;;;17.40;67.30;;;;;;4908063;28;45685;-73
2023/04/09 12:00:26;;;;;;;2.03;1.50;;;17.40;67.20;;;;;;4907327;28;45786;-73
2023/04/09 12:03:00;;;;;;;4.30;1.30;;;17.40;67.20;;;;;;4907032;28;46596;-72
2023/04/09 12:05:29;;;;;;;2.58;1.48;;;17.40;67.40;;;;;;4906988;28;45286;-73
2023/04/09 12:07:59;;;;;;;1.88;1.55;;;17.40;67.30;;;;;;4907213;28;45440;-73
2023/04/09 12:10:28;;;;;;;1.63;1.20;;;17.40;67.10;;;;;;4907357;28;45326;-73
2023/04/09 12:13:02;;;;;;;2.03;1.65;;;17.40;68.20;;;;;;4914651;28;45516;-73
2023/04/09 12:15:32;;;;;;;1.77;1.33;;;17.40;67.30;;;;;;4906815;28;45366;-73
2023/04/09 12:17:59;;;;;;;2.17;1.40;;;17.40;67.30;;;;;;4914520;28;45377;-72
2023/04/09 12:20:30;;;;;;;2.10;1.40;;;17.40;67.50;;;;;;4906874;28;45323;-73
2023/04/09 12:23:00;;;;;;;1.90;1.27;;;17.50;67.50;;;;;;4905819;28;48767;-73
2023/04/09 12:25:27;;;;;;;1.90;1.48;;;17.50;67.50;;;;;;4906203;28;46298;-72
2023/04/09 12:27:56;;;;;;;1.40;1.10;;;17.50;67.50;;;;;;4906904;28;45435;-73
2023/04/09 12:30:22;;;;;;;1.75;1.20;;;17.50;67.50;;;;;;4907257;28;45499;-73
2023/04/09 12:32:50;;;;;;;1.85;1.50;;;17.50;67.70;;;;;;4906403;28;46585;-72
2023/04/09 12:35:17;;;;;;;1.50;1.20;;;17.50;67.40;;;;;;4906573;28;45397;-73
2023/04/09 12:37:44;;;;;;;1.30;1.20;;;17.50;67.30;;;;;;4906455;28;45350;-73
2023/04/09 12:40:12;;;;;;;1.52;1.25;;;17.50;67.20;;;;;;4906800;28;45410;-73
2023/04/09 12:42:39;;;;;;;3.10;1.30;;;17.50;67.40;;;;;;4906118;28;48222;-73
2023/04/09 12:45:10;;;;;;;1.95;1.40;;;17.50;66.90;;;;;;4906597;28;45360;-73
2023/04/09 12:47:38;;;;;;;1.80;1.33;;;17.50;66.80;;;;;;4906717;28;45388;-73
2023/04/09 12:50:06;;;;;;;2.33;1.52;;;17.50;67.00;;;;;;4906691;28;45290;-73
2023/04/09 12:52:33;;;;;;;2.35;1.45;;;17.50;67.00;;;;;;4906323;28;46376;-73